sensor_id;sensor_type;location;lat;lon;timestamp;P1;durP1;ratioP1;P2;durP2;ratioP2
51792;SDS011;37850;53.178;6.376;2022-10-16T00:01:51;8.70;;;1.75;;
51792;SDS011;37850;53.178;6.376;2022-10-16T00:04:16;10.85;;;1.70;;
51792;SDS011;37850;53.178;6.376;2022-10-16T00:06:42;11.65;;;2.00;;
51792;SDS011;37850;53.178;6.376;2022-10-16T00:09:08;9.60;;;2.00;;
51792;SDS011;37850;53.178;6.376;2022-10-16T00:11:34;5.90;;;1.27;;
51792;SDS011;37850;53.178;6.376;2022-10-16T00:14:02;8.10;;;2.15;;
51792;SDS011;37850;53.178;6.376;2022-10-16T00:16:30;11.10;;;1.70;;
51792;SDS011;37850;53.178;6.376;2022-10-16T00:18:56;9.38;;;1.85;;
51792;SDS011;37850;53.178;6.376;2022-10-16T00:21:22;9.88;;;2.10;;
51792;SDS011;37850;53.178;6.376;2022-10-16T00:23:50;7.32;;;1.60;;
51792;SDS011;37850;53.178;6.376;2022-10-16T00:26:20;6.07;;;1.50;;
51792;SDS011;37850;53.178;6.376;2022-10-16T00:28:47;8.50;;;1.65;;
51792;SDS011;37850;53.178;6.376;2022-10-16T00:31:14;9.18;;;1.70;;
51792;SDS011;37850;53.178;6.376;2022-10-16T00:33:41;11.93;;;2.17;;
51792;SDS011;37850;53.178;6.376;2022-10-16T00:36:07;11.02;;;1.70;;
51792;SDS011;37850;53.178;6.376;2022-10-16T00:38:36;7.20;;;1.80;;
51792;SDS011;37850;53.178;6.376;2022-10-16T00:41:02;10.00;;;1.85;;
51792;SDS011;37850;53.178;6.376;2022-10-16T00:46:17;9.65;;;1.67;;
51792;SDS011;37850;53.178;6.376;2022-10-16T00:51:37;12.50;;;2.03;;
51792;SDS011;37850;53.178;6.376;2022-10-16T00:54:20;6.20;;;1.65;;
51792;SDS011;37850;53.178;6.376;2022-10-16T00:56:47;5.00;;;1.23;;
51792;SDS011;37850;53.178;6.376;2022-10-16T00:59:18;8.55;;;1.50;;
51792;SDS011;37850;53.178;6.376;2022-10-16T01:01:47;6.78;;;1.45;;
51792;SDS011;37850;53.178;6.376;2022-10-16T01:04:14;5.63;;;1.77;;
51792;SDS011;37850;53.178;6.376;2022-10-16T01:06:43;6.38;;;1.50;;
51792;SDS011;37850;53.178;6.376;2022-10-16T01:09:13;8.80;;;1.55;;
51792;SDS011;37850;53.178;6.376;2022-10-16T01:11:49;6.10;;;1.63;;
51792;SDS011;37850;53.178;6.376;2022-10-16T01:17:33;9.98;;;1.45;;
51792;SDS011;37850;53.178;6.376;2022-10-16T01:22:43;6.50;;;1.52;;
51792;SDS011;37850;53.178;6.376;2022-10-16T01:25:22;6.80;;;1.45;;
51792;SDS011;37850;53.178;6.376;2022-10-16T01:27:56;5.63;;;1.85;;
51792;SDS011;37850;53.178;6.376;2022-10-16T01:30:27;7.70;;;1.52;;
51792;SDS011;37850;53.178;6.376;2022-10-16T01:32:58;10.85;;;1.73;;
51792;SDS011;37850;53.178;6.376;2022-10-16T01:35:31;8.63;;;1.55;;
51792;SDS011;37850;53.178;6.376;2022-10-16T01:38:16;9.57;;;1.60;;
51792;SDS011;37850;53.178;6.376;2022-10-16T01:40:58;6.45;;;1.52;;
51792;SDS011;37850;53.178;6.376;2022-10-16T01:43:39;7.20;;;1.55;;
51792;SDS011;37850;53.178;6.376;2022-10-16T01:46:08;8.93;;;1.83;;
51792;SDS011;37850;53.178;6.376;2022-10-16T01:48:36;10.15;;;1.63;;
51792;SDS011;37850;53.178;6.376;2022-10-16T01:51:06;6.53;;;1.52;;
51792;SDS011;37850;53.178;6.376;2022-10-16T01:56:00;10.63;;;2.08;;
51792;SDS011;37850;53.178;6.376;2022-10-16T01:58:28;7.13;;;1.52;;
51792;SDS011;37850;53.178;6.376;2022-10-16T02:00:59;7.50;;;1.70;;
51792;SDS011;37850;53.178;6.376;2022-10-16T02:03:27;10.23;;;1.85;;
51792;SDS011;37850;53.178;6.376;2022-10-16T02:05:54;7.40;;;1.58;;
51792;SDS011;37850;53.178;6.376;2022-10-16T02:08:23;9.60;;;1.98;;
51792;SDS011;37850;53.178;6.376;2022-10-16T02:10:53;5.80;;;1.45;;
51792;SDS011;37850;53.178;6.376;2022-10-16T02:13:26;7.50;;;2.00;;
51792;SDS011;37850;53.178;6.376;2022-10-16T02:15:58;8.38;;;1.80;;
51792;SDS011;37850;53.178;6.376;2022-10-16T02:18:25;9.18;;;2.17;;
51792;SDS011;37850;53.178;6.376;2022-10-16T02:20:58;6.45;;;1.60;;
51792;SDS011;37850;53.178;6.376;2022-10-16T02:23:45;6.93;;;1.67;;
51792;SDS011;37850;53.178;6.376;2022-10-16T02:26:13;7.00;;;1.58;;
51792;SDS011;37850;53.178;6.376;2022-10-16T02:28:48;8.23;;;1.85;;
51792;SDS011;37850;53.178;6.376;2022-10-16T02:31:21;5.70;;;1.65;;
51792;SDS011;37850;53.178;6.376;2022-10-16T02:33:52;7.75;;;1.52;;
51792;SDS011;37850;53.178;6.376;2022-10-16T02:36:19;6.88;;;1.73;;
51792;SDS011;37850;53.178;6.376;2022-10-16T02:38:46;7.30;;;1.67;;
51792;SDS011;37850;53.178;6.376;2022-10-16T02:41:12;9.23;;;1.80;;
51792;SDS011;37850;53.178;6.376;2022-10-16T02:43:39;9.05;;;1.63;;
51792;SDS011;37850;53.178;6.376;2022-10-16T02:46:05;4.28;;;1.40;;
51792;SDS011;37850;53.178;6.376;2022-10-16T02:48:31;7.28;;;1.58;;
51792;SDS011;37850;53.178;6.376;2022-10-16T02:50:56;9.30;;;1.63;;
51792;SDS011;37850;53.178;6.376;2022-10-16T02:53:22;6.32;;;1.50;;
51792;SDS011;37850;53.178;6.376;2022-10-16T02:55:48;6.68;;;1.73;;
51792;SDS011;37850;53.178;6.376;2022-10-16T02:58:14;10.82;;;1.70;;
51792;SDS011;37850;53.178;6.376;2022-10-16T03:00:39;6.75;;;1.60;;
51792;SDS011;37850;53.178;6.376;2022-10-16T03:03:05;5.90;;;1.65;;
51792;SDS011;37850;53.178;6.376;2022-10-16T03:05:31;5.35;;;1.40;;
51792;SDS011;37850;53.178;6.376;2022-10-16T03:07:57;8.18;;;1.85;;
51792;SDS011;37850;53.178;6.376;2022-10-16T03:10:25;5.88;;;1.60;;
51792;SDS011;37850;53.178;6.376;2022-10-16T03:12:50;9.57;;;1.60;;
51792;SDS011;37850;53.178;6.376;2022-10-16T03:15:16;9.40;;;1.70;;
51792;SDS011;37850;53.178;6.376;2022-10-16T03:17:42;8.20;;;1.95;;
51792;SDS011;37850;53.178;6.376;2022-10-16T03:20:08;5.55;;;1.50;;
51792;SDS011;37850;53.178;6.376;2022-10-16T03:22:34;7.53;;;1.77;;
51792;SDS011;37850;53.178;6.376;2022-10-16T03:25:00;5.38;;;1.55;;
51792;SDS011;37850;53.178;6.376;2022-10-16T03:27:26;6.03;;;1.67;;
51792;SDS011;37850;53.178;6.376;2022-10-16T03:29:51;6.97;;;1.20;;
51792;SDS011;37850;53.178;6.376;2022-10-16T03:32:17;5.40;;;1.35;;
51792;SDS011;37850;53.178;6.376;2022-10-16T03:34:43;5.93;;;1.33;;
51792;SDS011;37850;53.178;6.376;2022-10-16T03:37:09;4.50;;;1.40;;
51792;SDS011;37850;53.178;6.376;2022-10-16T03:39:35;5.82;;;2.20;;
51792;SDS011;37850;53.178;6.376;2022-10-16T03:42:01;6.43;;;1.60;;
51792;SDS011;37850;53.178;6.376;2022-10-16T03:44:26;7.85;;;1.77;;
51792;SDS011;37850;53.178;6.376;2022-10-16T03:46:52;5.55;;;1.60;;
51792;SDS011;37850;53.178;6.376;2022-10-16T03:49:18;6.05;;;1.50;;
51792;SDS011;37850;53.178;6.376;2022-10-16T03:51:46;4.65;;;1.40;;
51792;SDS011;37850;53.178;6.376;2022-10-16T03:54:12;6.57;;;1.50;;
51792;SDS011;37850;53.178;6.376;2022-10-16T03:56:38;7.68;;;1.50;;
51792;SDS011;37850;53.178;6.376;2022-10-16T03:59:04;6.90;;;1.98;;
51792;SDS011;37850;53.178;6.376;2022-10-16T04:01:29;7.28;;;1.98;;
51792;SDS011;37850;53.178;6.376;2022-10-16T04:03:55;4.43;;;1.80;;
51792;SDS011;37850;53.178;6.376;2022-10-16T04:06:21;5.97;;;1.73;;
51792;SDS011;37850;53.178;6.376;2022-10-16T04:08:47;4.32;;;1.30;;
51792;SDS011;37850;53.178;6.376;2022-10-16T04:11:12;3.60;;;1.38;;
51792;SDS011;37850;53.178;6.376;2022-10-16T04:13:38;4.53;;;1.60;;
51792;SDS011;37850;53.178;6.376;2022-10-16T04:16:04;4.95;;;1.50;;
51792;SDS011;37850;53.178;6.376;2022-10-16T04:18:29;7.97;;;1.70;;
51792;SDS011;37850;53.178;6.376;2022-10-16T04:20:55;4.65;;;1.65;;
51792;SDS011;37850;53.178;6.376;2022-10-16T04:23:21;5.45;;;1.70;;
51792;SDS011;37850;53.178;6.376;2022-10-16T04:25:48;7.78;;;1.80;;
51792;SDS011;37850;53.178;6.376;2022-10-16T04:28:14;4.80;;;1.50;;
51792;SDS011;37850;53.178;6.376;2022-10-16T04:30:40;6.40;;;1.80;;
51792;SDS011;37850;53.178;6.376;2022-10-16T04:33:05;4.22;;;1.58;;
51792;SDS011;37850;53.178;6.376;2022-10-16T04:35:33;10.75;;;1.90;;
51792;SDS011;37850;53.178;6.376;2022-10-16T04:37:58;7.10;;;1.63;;
51792;SDS011;37850;53.178;6.376;2022-10-16T04:40:24;6.72;;;1.75;;
51792;SDS011;37850;53.178;6.376;2022-10-16T04:42:50;5.82;;;1.50;;
51792;SDS011;37850;53.178;6.376;2022-10-16T04:45:15;8.25;;;1.90;;
51792;SDS011;37850;53.178;6.376;2022-10-16T04:47:41;4.60;;;1.63;;
51792;SDS011;37850;53.178;6.376;2022-10-16T04:50:07;6.30;;;2.10;;
51792;SDS011;37850;53.178;6.376;2022-10-16T04:52:33;8.02;;;1.92;;
51792;SDS011;37850;53.178;6.376;2022-10-16T04:54:59;6.05;;;1.80;;
51792;SDS011;37850;53.178;6.376;2022-10-16T04:57:27;8.27;;;1.70;;
51792;SDS011;37850;53.178;6.376;2022-10-16T04:59:53;10.23;;;2.08;;
51792;SDS011;37850;53.178;6.376;2022-10-16T05:02:19;12.85;;;1.75;;
51792;SDS011;37850;53.178;6.376;2022-10-16T05:04:45;7.15;;;1.73;;
51792;SDS011;37850;53.178;6.376;2022-10-16T05:07:10;5.63;;;2.00;;
51792;SDS011;37850;53.178;6.376;2022-10-16T05:09:36;8.70;;;1.80;;
51792;SDS011;37850;53.178;6.376;2022-10-16T05:12:02;6.50;;;1.88;;
51792;SDS011;37850;53.178;6.376;2022-10-16T05:14:28;7.20;;;2.22;;
51792;SDS011;37850;53.178;6.376;2022-10-16T05:16:54;7.50;;;2.10;;
51792;SDS011;37850;53.178;6.376;2022-10-16T05:19:20;7.68;;;1.90;;
51792;SDS011;37850;53.178;6.376;2022-10-16T05:21:46;9.68;;;1.90;;
51792;SDS011;37850;53.178;6.376;2022-10-16T05:24:11;6.47;;;1.92;;
51792;SDS011;37850;53.178;6.376;2022-10-16T05:26:37;6.82;;;1.80;;
51792;SDS011;37850;53.178;6.376;2022-10-16T05:29:03;8.05;;;2.08;;
51792;SDS011;37850;53.178;6.376;2022-10-16T05:31:29;7.57;;;2.88;;
51792;SDS011;37850;53.178;6.376;2022-10-16T05:33:58;8.73;;;2.78;;
51792;SDS011;37850;53.178;6.376;2022-10-16T05:36:25;6.00;;;2.47;;
51792;SDS011;37850;53.178;6.376;2022-10-16T05:38:51;7.05;;;2.28;;
51792;SDS011;37850;53.178;6.376;2022-10-16T05:41:17;8.43;;;2.65;;
51792;SDS011;37850;53.178;6.376;2022-10-16T05:43:47;8.60;;;2.42;;
51792;SDS011;37850;53.178;6.376;2022-10-16T05:46:13;6.78;;;2.28;;
51792;SDS011;37850;53.178;6.376;2022-10-16T05:48:40;9.55;;;2.38;;
51792;SDS011;37850;53.178;6.376;2022-10-16T05:51:06;7.40;;;2.50;;
51792;SDS011;37850;53.178;6.376;2022-10-16T05:53:34;10.57;;;2.28;;
51792;SDS011;37850;53.178;6.376;2022-10-16T05:56:02;9.07;;;2.20;;
51792;SDS011;37850;53.178;6.376;2022-10-16T05:58:29;6.78;;;2.25;;
51792;SDS011;37850;53.178;6.376;2022-10-16T06:01:03;8.68;;;2.78;;
51792;SDS011;37850;53.178;6.376;2022-10-16T06:03:30;10.15;;;3.15;;
51792;SDS011;37850;53.178;6.376;2022-10-16T06:05:56;8.48;;;2.80;;
51792;SDS011;37850;53.178;6.376;2022-10-16T06:08:22;8.05;;;2.80;;
51792;SDS011;37850;53.178;6.376;2022-10-16T06:10:49;8.88;;;2.50;;
51792;SDS011;37850;53.178;6.376;2022-10-16T06:13:24;8.68;;;2.72;;
51792;SDS011;37850;53.178;6.376;2022-10-16T06:15:50;9.27;;;2.60;;
51792;SDS011;37850;53.178;6.376;2022-10-16T06:18:16;9.48;;;2.53;;
51792;SDS011;37850;53.178;6.376;2022-10-16T06:20:41;9.27;;;2.97;;
51792;SDS011;37850;53.178;6.376;2022-10-16T06:23:07;7.93;;;2.45;;
51792;SDS011;37850;53.178;6.376;2022-10-16T06:25:33;7.15;;;2.28;;
51792;SDS011;37850;53.178;6.376;2022-10-16T06:27:58;8.70;;;2.40;;
51792;SDS011;37850;53.178;6.376;2022-10-16T06:30:24;7.50;;;2.75;;
51792;SDS011;37850;53.178;6.376;2022-10-16T06:32:50;8.27;;;2.60;;
51792;SDS011;37850;53.178;6.376;2022-10-16T06:35:16;6.72;;;2.35;;
51792;SDS011;37850;53.178;6.376;2022-10-16T06:37:41;7.88;;;2.70;;
51792;SDS011;37850;53.178;6.376;2022-10-16T06:40:07;7.75;;;2.50;;
51792;SDS011;37850;53.178;6.376;2022-10-16T06:42:33;8.48;;;2.20;;
51792;SDS011;37850;53.178;6.376;2022-10-16T06:44:59;7.15;;;1.92;;
51792;SDS011;37850;53.178;6.376;2022-10-16T06:47:24;9.20;;;2.45;;
51792;SDS011;37850;53.178;6.376;2022-10-16T06:49:50;9.60;;;2.42;;
51792;SDS011;37850;53.178;6.376;2022-10-16T06:52:16;7.00;;;2.25;;
51792;SDS011;37850;53.178;6.376;2022-10-16T06:54:42;8.40;;;2.25;;
51792;SDS011;37850;53.178;6.376;2022-10-16T06:57:07;6.13;;;2.13;;
51792;SDS011;37850;53.178;6.376;2022-10-16T06:59:33;7.60;;;2.28;;
51792;SDS011;37850;53.178;6.376;2022-10-16T07:01:59;7.18;;;2.13;;
51792;SDS011;37850;53.178;6.376;2022-10-16T07:04:24;6.68;;;2.22;;
51792;SDS011;37850;53.178;6.376;2022-10-16T07:06:50;9.48;;;2.53;;
51792;SDS011;37850;53.178;6.376;2022-10-16T07:09:16;9.05;;;2.10;;
51792;SDS011;37850;53.178;6.376;2022-10-16T07:11:42;8.98;;;2.10;;
51792;SDS011;37850;53.178;6.376;2022-10-16T07:14:15;8.57;;;2.28;;
51792;SDS011;37850;53.178;6.376;2022-10-16T07:16:42;8.65;;;1.90;;
51792;SDS011;37850;53.178;6.376;2022-10-16T07:19:08;11.38;;;2.20;;
51792;SDS011;37850;53.178;6.376;2022-10-16T07:21:34;7.55;;;2.10;;
51792;SDS011;37850;53.178;6.376;2022-10-16T07:24:03;10.48;;;2.20;;
51792;SDS011;37850;53.178;6.376;2022-10-16T07:26:32;8.88;;;2.30;;
51792;SDS011;37850;53.178;6.376;2022-10-16T07:28:59;7.00;;;2.17;;
51792;SDS011;37850;53.178;6.376;2022-10-16T07:31:26;9.43;;;2.20;;
51792;SDS011;37850;53.178;6.376;2022-10-16T07:33:52;10.23;;;2.53;;
51792;SDS011;37850;53.178;6.376;2022-10-16T07:36:19;12.15;;;2.33;;
51792;SDS011;37850;53.178;6.376;2022-10-16T07:38:45;11.25;;;2.50;;
51792;SDS011;37850;53.178;6.376;2022-10-16T07:41:12;7.45;;;2.13;;
51792;SDS011;37850;53.178;6.376;2022-10-16T07:43:40;5.68;;;2.00;;
51792;SDS011;37850;53.178;6.376;2022-10-16T07:46:16;7.25;;;2.22;;
51792;SDS011;37850;53.178;6.376;2022-10-16T07:48:43;6.25;;;2.33;;
51792;SDS011;37850;53.178;6.376;2022-10-16T07:51:12;10.13;;;2.50;;
51792;SDS011;37850;53.178;6.376;2022-10-16T07:53:38;7.53;;;2.25;;
51792;SDS011;37850;53.178;6.376;2022-10-16T07:56:05;7.03;;;2.13;;
51792;SDS011;37850;53.178;6.376;2022-10-16T07:58:32;7.95;;;2.65;;
51792;SDS011;37850;53.178;6.376;2022-10-16T08:01:02;11.75;;;2.72;;
51792;SDS011;37850;53.178;6.376;2022-10-16T08:03:29;7.35;;;2.33;;
51792;SDS011;37850;53.178;6.376;2022-10-16T08:05:56;9.93;;;2.83;;
51792;SDS011;37850;53.178;6.376;2022-10-16T08:08:22;6.82;;;2.42;;
51792;SDS011;37850;53.178;6.376;2022-10-16T08:10:48;6.68;;;2.47;;
51792;SDS011;37850;53.178;6.376;2022-10-16T08:13:14;8.10;;;2.38;;
51792;SDS011;37850;53.178;6.376;2022-10-16T08:15:43;11.95;;;3.15;;
51792;SDS011;37850;53.178;6.376;2022-10-16T08:18:11;12.02;;;2.70;;
51792;SDS011;37850;53.178;6.376;2022-10-16T08:20:37;7.53;;;2.20;;
51792;SDS011;37850;53.178;6.376;2022-10-16T08:23:04;7.38;;;1.92;;
51792;SDS011;37850;53.178;6.376;2022-10-16T08:25:31;6.18;;;2.30;;
51792;SDS011;37850;53.178;6.376;2022-10-16T08:27:59;8.32;;;2.22;;
51792;SDS011;37850;53.178;6.376;2022-10-16T08:30:24;5.75;;;2.05;;
51792;SDS011;37850;53.178;6.376;2022-10-16T08:32:50;5.85;;;1.95;;
51792;SDS011;37850;53.178;6.376;2022-10-16T08:35:18;8.05;;;2.05;;
51792;SDS011;37850;53.178;6.376;2022-10-16T08:37:44;7.65;;;2.25;;
51792;SDS011;37850;53.178;6.376;2022-10-16T08:40:32;12.68;;;2.72;;
51792;SDS011;37850;53.178;6.376;2022-10-16T08:51:32;7.15;;;1.52;;
51792;SDS011;37850;53.178;6.376;2022-10-16T08:54:03;7.25;;;1.30;;
51792;SDS011;37850;53.178;6.376;2022-10-16T08:56:30;8.68;;;1.80;;
51792;SDS011;37850;53.178;6.376;2022-10-16T08:58:58;11.50;;;1.60;;
51792;SDS011;37850;53.178;6.376;2022-10-16T09:01:26;9.48;;;2.15;;
51792;SDS011;37850;53.178;6.376;2022-10-16T09:04:27;8.25;;;1.63;;
51792;SDS011;37850;53.178;6.376;2022-10-16T09:07:15;7.10;;;1.40;;
51792;SDS011;37850;53.178;6.376;2022-10-16T09:09:47;11.65;;;2.03;;
51792;SDS011;37850;53.178;6.376;2022-10-16T09:17:52;9.40;;;1.80;;
51792;SDS011;37850;53.178;6.376;2022-10-16T09:23:15;7.65;;;1.50;;
51792;SDS011;37850;53.178;6.376;2022-10-16T09:25:49;8.18;;;1.70;;
51792;SDS011;37850;53.178;6.376;2022-10-16T09:28:17;11.80;;;1.52;;
51792;SDS011;37850;53.178;6.376;2022-10-16T09:30:43;13.00;;;1.95;;
51792;SDS011;37850;53.178;6.376;2022-10-16T09:33:11;10.88;;;2.60;;
51792;SDS011;37850;53.178;6.376;2022-10-16T09:38:05;9.38;;;1.90;;
51792;SDS011;37850;53.178;6.376;2022-10-16T09:43:20;11.88;;;1.98;;
51792;SDS011;37850;53.178;6.376;2022-10-16T09:45:54;11.75;;;1.90;;
51792;SDS011;37850;53.178;6.376;2022-10-16T09:48:21;14.85;;;2.03;;
51792;SDS011;37850;53.178;6.376;2022-10-16T09:50:55;12.93;;;2.25;;
51792;SDS011;37850;53.178;6.376;2022-10-16T09:53:22;11.15;;;2.03;;
51792;SDS011;37850;53.178;6.376;2022-10-16T09:55:51;17.23;;;3.28;;
51792;SDS011;37850;53.178;6.376;2022-10-16T09:58:21;18.50;;;2.63;;
51792;SDS011;37850;53.178;6.376;2022-10-16T10:00:49;8.63;;;1.80;;
51792;SDS011;37850;53.178;6.376;2022-10-16T10:03:50;11.60;;;2.30;;
51792;SDS011;37850;53.178;6.376;2022-10-16T10:06:17;14.48;;;2.47;;
51792;SDS011;37850;53.178;6.376;2022-10-16T10:08:54;10.23;;;2.00;;
51792;SDS011;37850;53.178;6.376;2022-10-16T10:11:35;14.85;;;2.85;;
51792;SDS011;37850;53.178;6.376;2022-10-16T10:14:09;11.90;;;2.65;;
51792;SDS011;37850;53.178;6.376;2022-10-16T10:16:44;12.63;;;2.40;;
51792;SDS011;37850;53.178;6.376;2022-10-16T10:19:14;15.07;;;1.98;;
51792;SDS011;37850;53.178;6.376;2022-10-16T10:21:45;16.88;;;2.30;;
51792;SDS011;37850;53.178;6.376;2022-10-16T10:24:12;14.30;;;2.10;;
51792;SDS011;37850;53.178;6.376;2022-10-16T10:29:32;12.98;;;2.25;;
51792;SDS011;37850;53.178;6.376;2022-10-16T10:32:36;16.75;;;2.28;;
51792;SDS011;37850;53.178;6.376;2022-10-16T10:43:35;17.92;;;2.10;;
51792;SDS011;37850;53.178;6.376;2022-10-16T10:46:17;14.70;;;2.22;;
51792;SDS011;37850;53.178;6.376;2022-10-16T10:49:03;10.95;;;2.10;;
51792;SDS011;37850;53.178;6.376;2022-10-16T11:00:21;14.18;;;2.17;;
51792;SDS011;37850;53.178;6.376;2022-10-16T11:03:20;15.63;;;3.38;;
51792;SDS011;37850;53.178;6.376;2022-10-16T11:09:23;12.85;;;2.35;;
51792;SDS011;37850;53.178;6.376;2022-10-16T11:14:04;19.33;;;2.58;;
51792;SDS011;37850;53.178;6.376;2022-10-16T11:16:43;15.15;;;2.40;;
51792;SDS011;37850;53.178;6.376;2022-10-16T11:25:02;17.67;;;2.67;;
51792;SDS011;37850;53.178;6.376;2022-10-16T11:30:31;11.68;;;2.15;;
51792;SDS011;37850;53.178;6.376;2022-10-16T11:33:10;12.85;;;2.47;;
51792;SDS011;37850;53.178;6.376;2022-10-16T11:46:22;13.90;;;2.88;;
51792;SDS011;37850;53.178;6.376;2022-10-16T11:48:51;13.43;;;2.22;;
51792;SDS011;37850;53.178;6.376;2022-10-16T11:51:42;14.15;;;2.20;;
51792;SDS011;37850;53.178;6.376;2022-10-16T11:54:28;16.73;;;2.30;;
51792;SDS011;37850;53.178;6.376;2022-10-16T11:57:01;13.60;;;2.78;;
51792;SDS011;37850;53.178;6.376;2022-10-16T11:59:46;12.10;;;1.92;;
51792;SDS011;37850;53.178;6.376;2022-10-16T12:08:33;13.00;;;1.90;;
51792;SDS011;37850;53.178;6.376;2022-10-16T12:11:23;15.77;;;2.08;;
51792;SDS011;37850;53.178;6.376;2022-10-16T12:13:49;14.38;;;1.95;;
51792;SDS011;37850;53.178;6.376;2022-10-16T12:18:41;14.52;;;2.60;;
51792;SDS011;37850;53.178;6.376;2022-10-16T12:21:09;17.15;;;2.20;;
51792;SDS011;37850;53.178;6.376;2022-10-16T12:23:45;16.23;;;2.70;;
51792;SDS011;37850;53.178;6.376;2022-10-16T12:26:50;14.10;;;2.55;;
51792;SDS011;37850;53.178;6.376;2022-10-16T12:29:14;16.02;;;2.85;;
51792;SDS011;37850;53.178;6.376;2022-10-16T12:31:59;13.50;;;2.00;;
51792;SDS011;37850;53.178;6.376;2022-10-16T12:34:29;18.20;;;2.95;;
51792;SDS011;37850;53.178;6.376;2022-10-16T12:39:43;15.13;;;2.53;;
51792;SDS011;37850;53.178;6.376;2022-10-16T12:44:52;19.10;;;2.53;;
51792;SDS011;37850;53.178;6.376;2022-10-16T12:47:37;17.50;;;2.72;;
51792;SDS011;37850;53.178;6.376;2022-10-16T12:53:20;14.45;;;2.40;;
51792;SDS011;37850;53.178;6.376;2022-10-16T12:56:14;15.80;;;2.20;;
51792;SDS011;37850;53.178;6.376;2022-10-16T13:01:11;15.10;;;2.35;;
51792;SDS011;37850;53.178;6.376;2022-10-16T13:04:00;12.93;;;2.08;;
51792;SDS011;37850;53.178;6.376;2022-10-16T13:09:40;12.73;;;2.25;;
51792;SDS011;37850;53.178;6.376;2022-10-16T13:12:19;10.32;;;2.00;;
51792;SDS011;37850;53.178;6.376;2022-10-16T13:15:19;15.07;;;2.25;;
51792;SDS011;37850;53.178;6.376;2022-10-16T13:18:13;15.18;;;2.10;;
51792;SDS011;37850;53.178;6.376;2022-10-16T13:23:46;11.45;;;2.00;;
51792;SDS011;37850;53.178;6.376;2022-10-16T13:28:51;16.00;;;1.70;;
51792;SDS011;37850;53.178;6.376;2022-10-16T13:31:21;12.13;;;1.85;;
51792;SDS011;37850;53.178;6.376;2022-10-16T13:33:50;14.63;;;2.20;;
51792;SDS011;37850;53.178;6.376;2022-10-16T13:36:22;11.73;;;1.98;;
51792;SDS011;37850;53.178;6.376;2022-10-16T13:41:45;11.40;;;1.77;;
51792;SDS011;37850;53.178;6.376;2022-10-16T13:44:13;13.20;;;2.00;;
51792;SDS011;37850;53.178;6.376;2022-10-16T13:46:42;16.23;;;2.55;;
51792;SDS011;37850;53.178;6.376;2022-10-16T13:49:12;13.85;;;1.88;;
51792;SDS011;37850;53.178;6.376;2022-10-16T13:51:40;9.55;;;2.17;;
51792;SDS011;37850;53.178;6.376;2022-10-16T13:54:09;16.40;;;2.45;;
51792;SDS011;37850;53.178;6.376;2022-10-16T13:56:38;11.27;;;2.03;;
51792;SDS011;37850;53.178;6.376;2022-10-16T13:59:07;13.70;;;1.88;;
51792;SDS011;37850;53.178;6.376;2022-10-16T14:02:21;12.95;;;1.70;;
51792;SDS011;37850;53.178;6.376;2022-10-16T14:04:47;10.85;;;1.80;;
51792;SDS011;37850;53.178;6.376;2022-10-16T14:07:14;14.27;;;2.00;;
51792;SDS011;37850;53.178;6.376;2022-10-16T14:09:50;14.85;;;3.45;;
51792;SDS011;37850;53.178;6.376;2022-10-16T14:12:17;11.57;;;2.50;;
51792;SDS011;37850;53.178;6.376;2022-10-16T14:14:44;12.43;;;2.30;;
51792;SDS011;37850;53.178;6.376;2022-10-16T14:17:27;16.13;;;2.58;;
51792;SDS011;37850;53.178;6.376;2022-10-16T14:19:56;14.68;;;2.20;;
51792;SDS011;37850;53.178;6.376;2022-10-16T14:24:59;14.43;;;2.60;;
51792;SDS011;37850;53.178;6.376;2022-10-16T14:30:11;9.35;;;1.95;;
51792;SDS011;37850;53.178;6.376;2022-10-16T14:32:40;11.35;;;2.05;;
51792;SDS011;37850;53.178;6.376;2022-10-16T14:37:51;12.07;;;2.50;;
51792;SDS011;37850;53.178;6.376;2022-10-16T14:40:17;12.18;;;2.20;;
51792;SDS011;37850;53.178;6.376;2022-10-16T14:42:44;12.57;;;2.15;;
51792;SDS011;37850;53.178;6.376;2022-10-16T14:45:10;13.45;;;2.17;;
51792;SDS011;37850;53.178;6.376;2022-10-16T14:47:37;11.68;;;2.22;;
51792;SDS011;37850;53.178;6.376;2022-10-16T14:50:20;12.63;;;1.95;;
51792;SDS011;37850;53.178;6.376;2022-10-16T14:52:49;13.52;;;2.50;;
51792;SDS011;37850;53.178;6.376;2022-10-16T14:55:15;13.23;;;2.38;;
51792;SDS011;37850;53.178;6.376;2022-10-16T14:57:42;13.90;;;2.22;;
51792;SDS011;37850;53.178;6.376;2022-10-16T15:00:18;11.43;;;2.28;;
51792;SDS011;37850;53.178;6.376;2022-10-16T15:02:47;11.50;;;2.17;;
51792;SDS011;37850;53.178;6.376;2022-10-16T15:07:42;17.00;;;2.67;;
51792;SDS011;37850;53.178;6.376;2022-10-16T15:10:08;14.00;;;2.58;;
51792;SDS011;37850;53.178;6.376;2022-10-16T15:12:34;14.00;;;2.83;;
51792;SDS011;37850;53.178;6.376;2022-10-16T15:15:00;14.82;;;3.10;;
51792;SDS011;37850;53.178;6.376;2022-10-16T15:17:26;10.18;;;2.38;;
51792;SDS011;37850;53.178;6.376;2022-10-16T15:19:52;15.05;;;1.92;;
51792;SDS011;37850;53.178;6.376;2022-10-16T15:22:17;25.38;;;2.95;;
51792;SDS011;37850;53.178;6.376;2022-10-16T15:24:43;13.18;;;2.30;;
51792;SDS011;37850;53.178;6.376;2022-10-16T15:27:09;11.55;;;2.00;;
51792;SDS011;37850;53.178;6.376;2022-10-16T15:29:34;11.93;;;2.22;;
51792;SDS011;37850;53.178;6.376;2022-10-16T15:32:00;10.15;;;2.00;;
51792;SDS011;37850;53.178;6.376;2022-10-16T15:34:26;13.88;;;2.45;;
51792;SDS011;37850;53.178;6.376;2022-10-16T15:36:52;13.90;;;2.03;;
51792;SDS011;37850;53.178;6.376;2022-10-16T15:39:20;12.27;;;1.77;;
51792;SDS011;37850;53.178;6.376;2022-10-16T15:41:46;10.32;;;2.13;;
51792;SDS011;37850;53.178;6.376;2022-10-16T15:44:16;15.15;;;2.45;;
51792;SDS011;37850;53.178;6.376;2022-10-16T15:46:42;16.50;;;2.10;;
51792;SDS011;37850;53.178;6.376;2022-10-16T15:49:08;15.23;;;2.55;;
51792;SDS011;37850;53.178;6.376;2022-10-16T15:51:37;14.68;;;2.20;;
51792;SDS011;37850;53.178;6.376;2022-10-16T15:54:04;17.17;;;2.42;;
51792;SDS011;37850;53.178;6.376;2022-10-16T15:56:30;12.85;;;1.95;;
51792;SDS011;37850;53.178;6.376;2022-10-16T15:58:58;14.02;;;2.63;;
51792;SDS011;37850;53.178;6.376;2022-10-16T16:01:25;13.55;;;2.78;;
51792;SDS011;37850;53.178;6.376;2022-10-16T16:03:54;13.90;;;2.25;;
51792;SDS011;37850;53.178;6.376;2022-10-16T16:06:20;11.68;;;2.25;;
51792;SDS011;37850;53.178;6.376;2022-10-16T16:08:48;14.20;;;2.38;;
51792;SDS011;37850;53.178;6.376;2022-10-16T16:11:15;15.32;;;2.70;;
51792;SDS011;37850;53.178;6.376;2022-10-16T16:13:42;16.80;;;2.75;;
51792;SDS011;37850;53.178;6.376;2022-10-16T16:16:08;13.70;;;2.55;;
51792;SDS011;37850;53.178;6.376;2022-10-16T16:18:36;13.95;;;2.47;;
51792;SDS011;37850;53.178;6.376;2022-10-16T16:21:03;8.20;;;1.85;;
51792;SDS011;37850;53.178;6.376;2022-10-16T16:23:29;12.95;;;2.13;;
51792;SDS011;37850;53.178;6.376;2022-10-16T16:26:02;12.10;;;2.00;;
51792;SDS011;37850;53.178;6.376;2022-10-16T16:31:03;10.63;;;1.80;;
51792;SDS011;37850;53.178;6.376;2022-10-16T16:33:29;12.65;;;2.42;;
51792;SDS011;37850;53.178;6.376;2022-10-16T16:36:00;11.65;;;1.83;;
51792;SDS011;37850;53.178;6.376;2022-10-16T16:38:28;12.60;;;2.42;;
51792;SDS011;37850;53.178;6.376;2022-10-16T16:40:54;14.32;;;2.20;;
51792;SDS011;37850;53.178;6.376;2022-10-16T16:43:26;11.52;;;2.28;;
51792;SDS011;37850;53.178;6.376;2022-10-16T16:45:53;10.68;;;1.90;;
51792;SDS011;37850;53.178;6.376;2022-10-16T16:48:20;15.40;;;3.42;;
51792;SDS011;37850;53.178;6.376;2022-10-16T16:50:46;7.97;;;2.53;;
51792;SDS011;37850;53.178;6.376;2022-10-16T16:53:12;14.10;;;2.50;;
51792;SDS011;37850;53.178;6.376;2022-10-16T16:55:38;14.68;;;2.80;;
51792;SDS011;37850;53.178;6.376;2022-10-16T16:58:04;14.35;;;1.92;;
51792;SDS011;37850;53.178;6.376;2022-10-16T17:00:30;9.57;;;2.25;;